createdAt,value
2018-02-22T00:01:25.159Z,99.40
2018-02-22T00:03:52.696Z,99.20
2018-02-22T00:06:20.244Z,98.90
2018-02-22T00:08:47.975Z,98.60
2018-02-22T00:11:16.463Z,98.40
2018-02-22T00:13:44.003Z,98.50
2018-02-22T00:16:11.572Z,98.70
2018-02-22T00:18:39.128Z,99.20
2018-02-22T00:21:06.673Z,98.90
2018-02-22T00:23:34.475Z,98.80
2018-02-22T00:26:02.029Z,98.60
2018-02-22T00:28:30.335Z,98.70
2018-02-22T00:30:58.639Z,98.70
2018-02-22T00:33:26.183Z,98.60
2018-02-22T00:35:53.733Z,98.50
2018-02-22T00:38:21.307Z,98.20
2018-02-22T00:40:48.879Z,97.90
2018-02-22T00:43:16.516Z,97.70
2018-02-22T00:45:44.099Z,97.20
2018-02-22T00:48:11.635Z,96.70
2018-02-22T00:50:39.180Z,96.50
2018-02-22T00:53:06.800Z,96.40
2018-02-22T00:55:34.334Z,96.50
2018-02-22T00:58:01.928Z,96.40
2018-02-22T01:00:29.511Z,96.20
2018-02-22T01:02:57.083Z,96.60
2018-02-22T01:05:24.675Z,96.60
2018-02-22T01:07:52.244Z,96.60
2018-02-22T01:10:19.795Z,96.30
2018-02-22T01:12:47.344Z,96.40
2018-02-22T01:15:16.860Z,96.50
2018-02-22T01:17:44.404Z,96.50
2018-02-22T01:20:11.975Z,96.50
2018-02-22T01:22:39.550Z,96.70
2018-02-22T01:25:07.590Z,96.70
2018-02-22T01:27:35.140Z,96.80
2018-02-22T01:30:02.715Z,96.80
2018-02-22T01:32:30.264Z,96.80
2018-02-22T01:34:57.812Z,96.50
2018-02-22T01:37:25.945Z,96.20
2018-02-22T01:39:53.491Z,96.40
2018-02-22T01:42:21.036Z,96.50
2018-02-22T01:44:48.615Z,96.40
2018-02-22T01:47:16.707Z,96.50
2018-02-22T01:49:44.259Z,96.40
2018-02-22T01:52:11.839Z,96.60
2018-02-22T01:54:40.158Z,97.30
2018-02-22T01:57:07.707Z,97.30
2018-02-22T01:59:35.711Z,97.40
2018-02-22T02:02:03.255Z,97.50
2018-02-22T02:04:30.808Z,97.60
2018-02-22T02:06:58.383Z,97.80
2018-02-22T02:09:25.939Z,97.90
2018-02-22T02:11:53.485Z,98.10
2018-02-22T02:14:21.063Z,98.10
2018-02-22T02:16:48.604Z,98.30
2018-02-22T02:19:16.628Z,98.30
2018-02-22T02:21:44.680Z,98.20
2018-02-22T02:24:12.228Z,98.10
2018-02-22T02:26:40.024Z,97.60
2018-02-22T02:29:07.600Z,97.70
2018-02-22T02:31:35.907Z,97.80
2018-02-22T02:34:03.452Z,97.90
2018-02-22T02:36:31.033Z,97.90
2018-02-22T02:38:58.575Z,97.90
2018-02-22T02:41:26.123Z,98.10
2018-02-22T02:43:54.251Z,97.90
2018-02-22T02:46:21.805Z,97.90
2018-02-22T02:48:49.348Z,98.10
2018-02-22T02:51:16.949Z,98.20
2018-02-22T02:53:44.501Z,98.30
2018-02-22T02:56:12.056Z,98.40
2018-02-22T02:58:39.631Z,98.50
2018-02-22T03:01:07.185Z,98.50
2018-02-22T03:03:34.732Z,98.70
2018-02-22T03:06:02.600Z,98.60
2018-02-22T03:08:30.155Z,98.70
2018-02-22T03:10:57.712Z,98.70
2018-02-22T03:13:25.464Z,98.60
2018-02-22T03:15:53.003Z,98.70
2018-02-22T03:18:20.547Z,98.60
2018-02-22T03:20:48.878Z,98.60
2018-02-22T03:23:17.237Z,98.60
2018-02-22T03:25:44.789Z,98.60
2018-02-22T03:28:13.494Z,98.70
2018-02-22T03:30:41.045Z,98.80
2018-02-22T03:33:08.591Z,98.80
2018-02-22T03:35:36.179Z,98.70
2018-02-22T03:38:03.733Z,98.70
2018-02-22T03:40:31.283Z,98.80
2018-02-22T03:42:58.856Z,98.50
2018-02-22T03:45:26.408Z,98.50
2018-02-22T03:47:53.960Z,98.40
2018-02-22T03:50:21.847Z,98.20
2018-02-22T03:52:49.401Z,98.20
2018-02-22T03:55:16.956Z,97.90
2018-02-22T03:57:44.528Z,97.90
2018-02-22T04:00:12.076Z,98.00
2018-02-22T04:02:39.626Z,97.60
2018-02-22T04:05:07.204Z,98.00
2018-02-22T04:07:34.765Z,98.10
2018-02-22T04:10:02.313Z,97.90
2018-02-22T04:12:31.028Z,98.30
2018-02-22T04:14:58.587Z,98.30
2018-02-22T04:17:26.201Z,98.40
2018-02-22T04:19:53.780Z,98.40
2018-02-22T04:22:21.318Z,98.30
2018-02-22T04:24:48.864Z,98.30
2018-02-22T04:27:17.303Z,98.30
2018-02-22T04:29:45.222Z,98.20
2018-02-22T04:32:13.687Z,98.20
2018-02-22T04:34:41.829Z,97.60
2018-02-22T04:37:09.383Z,97.40
2018-02-22T04:39:36.935Z,97.50
2018-02-22T04:42:04.516Z,97.30
2018-02-22T04:44:32.068Z,97.20
2018-02-22T04:46:59.630Z,97.00
2018-02-22T04:49:27.229Z,96.80
2018-02-22T04:51:55.548Z,96.70
2018-02-22T04:54:23.088Z,96.70
2018-02-22T04:56:50.862Z,96.70
2018-02-22T04:59:18.417Z,96.60
2018-02-22T05:01:45.956Z,96.50
2018-02-22T05:04:15.423Z,96.60
2018-02-22T05:06:42.967Z,96.60
2018-02-22T05:09:10.524Z,96.30
2018-02-22T05:11:38.108Z,96.10
2018-02-22T05:14:05.675Z,96.10
2018-02-22T05:16:33.224Z,96.60
2018-02-22T05:19:01.122Z,96.50
2018-02-22T05:21:29.431Z,96.20
2018-02-22T05:23:56.971Z,96.20
2018-02-22T05:26:24.546Z,96.40
2018-02-22T05:28:52.106Z,96.10
2018-02-22T05:31:19.941Z,96.20
2018-02-22T05:33:47.538Z,96.00
2018-02-22T05:36:15.587Z,95.80
2018-02-22T05:38:43.131Z,95.80
2018-02-22T05:41:11.911Z,95.60
2018-02-22T05:43:39.456Z,95.60
2018-02-22T05:46:07.005Z,96.00
2018-02-22T05:48:34.595Z,95.70
2018-02-22T05:51:02.916Z,95.80
2018-02-22T05:53:30.472Z,95.80
2018-02-22T05:55:58.059Z,96.10
2018-02-22T05:58:25.604Z,95.80
2018-02-22T06:00:53.147Z,95.70
2018-02-22T06:03:21.012Z,95.60
2018-02-22T06:05:49.282Z,96.10
2018-02-22T06:08:16.840Z,95.80
2018-02-22T06:10:44.407Z,95.50
2018-02-22T06:13:11.957Z,95.30
2018-02-22T06:15:39.527Z,95.20
2018-02-22T06:18:07.106Z,95.40
2018-02-22T06:20:34.651Z,95.50
2018-02-22T06:23:02.191Z,95.30
2018-02-22T06:25:30.320Z,95.50
2018-02-22T06:27:57.871Z,95.70
2018-02-22T06:30:25.411Z,95.50
2018-02-22T06:32:53.016Z,95.60
2018-02-22T06:35:20.564Z,95.40
2018-02-22T06:37:48.124Z,95.20
2018-02-22T06:40:16.745Z,95.00
2018-02-22T06:42:45.085Z,95.40
2018-02-22T06:45:12.647Z,95.40
2018-02-22T06:47:40.279Z,95.70
2018-02-22T06:50:07.831Z,95.80
2018-02-22T06:52:35.565Z,95.60
2018-02-22T06:55:03.926Z,95.90
2018-02-22T06:57:31.483Z,95.90
2018-02-22T06:59:59.449Z,96.00
2018-02-22T07:02:27.036Z,96.00
2018-02-22T07:04:54.603Z,96.10
2018-02-22T07:07:22.912Z,95.50
2018-02-22T07:09:51.043Z,95.50
2018-02-22T07:12:19.365Z,95.80
2018-02-22T07:14:46.913Z,95.70
2018-02-22T07:17:25.855Z,95.90
2018-02-22T07:22:46.462Z,95.60
2018-02-22T07:25:16.378Z,96.20
2018-02-22T07:27:44.093Z,96.20
2018-02-22T07:30:12.237Z,96.00
2018-02-22T07:32:39.770Z,96.20
2018-02-22T07:35:07.737Z,95.60
2018-02-22T07:37:35.307Z,96.00
2018-02-22T07:40:02.964Z,95.50
2018-02-22T07:42:30.517Z,95.60
2018-02-22T07:44:58.143Z,96.00
2018-02-22T07:47:25.684Z,95.90
2018-02-22T07:49:53.274Z,95.80
2018-02-22T07:52:21.844Z,95.30
2018-02-22T07:54:49.859Z,95.30
2018-02-22T07:57:17.526Z,95.10
2018-02-22T07:59:45.872Z,95.00
2018-02-22T08:02:23.690Z,95.00
2018-02-22T08:08:11.161Z,94.90
2018-02-22T08:10:38.704Z,95.10
2018-02-22T08:13:06.240Z,95.00
2018-02-22T08:15:35.391Z,94.60
2018-02-22T08:18:03.099Z,94.60
2018-02-22T08:20:30.663Z,94.50
2018-02-22T08:22:58.295Z,94.30
2018-02-22T08:25:25.882Z,94.10
2018-02-22T08:27:53.423Z,94.50
2018-02-22T08:30:21.538Z,94.00
2018-02-22T08:32:49.148Z,93.90
2018-02-22T08:35:17.152Z,94.10
2018-02-22T08:37:45.493Z,93.50
2018-02-22T08:40:26.328Z,93.90
2018-02-22T08:49:20.160Z,94.00
2018-02-22T08:51:47.752Z,94.00
2018-02-22T08:54:16.456Z,93.40
2018-02-22T08:56:44.788Z,93.10
2018-02-22T08:59:12.326Z,92.80
2018-02-22T09:04:42.591Z,91.60
2018-02-22T09:07:10.134Z,91.90
2018-02-22T09:09:37.684Z,91.40
2018-02-22T09:12:05.287Z,90.40
2018-02-22T09:14:32.833Z,90.90
2018-02-22T09:17:00.384Z,90.60
2018-02-22T09:19:27.955Z,90.40
2018-02-22T09:21:55.504Z,89.90
2018-02-22T09:24:23.049Z,89.60
2018-02-22T09:26:51.153Z,90.20
2018-02-22T09:29:18.696Z,89.10
2018-02-22T09:31:46.477Z,87.60
2018-02-22T09:34:31.493Z,89.10
2018-02-22T09:45:45.651Z,90.70
2018-02-22T09:48:15.339Z,90.50
2018-02-22T09:50:42.898Z,90.50
2018-02-22T09:53:10.484Z,90.50
2018-02-22T09:55:38.019Z,90.20
2018-02-22T09:58:05.589Z,90.30
2018-02-22T10:00:33.159Z,90.00
2018-02-22T10:03:01.083Z,90.00
2018-02-22T10:05:28.632Z,90.30
2018-02-22T10:07:57.682Z,89.70
2018-02-22T10:10:25.227Z,89.70
2018-02-22T10:12:52.772Z,89.20
2018-02-22T10:15:20.360Z,89.50
2018-02-22T10:17:48.669Z,89.40
2018-02-22T10:20:16.495Z,89.40
2018-02-22T10:22:44.072Z,89.10
2018-02-22T10:25:11.616Z,89.50
2018-02-22T10:27:39.159Z,88.90
2018-02-22T10:30:07.259Z,88.80
2018-02-22T10:32:34.816Z,88.80
2018-02-22T10:35:02.365Z,87.60
2018-02-22T10:37:29.936Z,88.60
2018-02-22T10:39:57.477Z,87.50
2018-02-22T10:42:25.024Z,88.80
2018-02-22T10:44:52.603Z,88.00
2018-02-22T10:47:20.651Z,88.20
2018-02-22T10:49:48.200Z,87.70
2018-02-22T10:52:21.964Z,86.90
2018-02-22T10:54:51.819Z,87.60
2018-02-22T10:57:19.748Z,88.20
2018-02-22T10:59:49.960Z,88.10
2018-02-22T11:02:25.720Z,85.70
2018-02-22T11:07:35.563Z,86.00
2018-02-22T11:10:09.382Z,86.30
2018-02-22T11:12:36.926Z,87.70
2018-02-22T11:15:04.467Z,88.30
2018-02-22T11:17:32.052Z,87.60
2018-02-22T11:19:59.605Z,87.90
2018-02-22T11:22:27.148Z,88.40
2018-02-22T11:24:54.744Z,87.30
2018-02-22T11:27:22.283Z,88.00
2018-02-22T11:29:49.823Z,88.20
2018-02-22T11:32:17.471Z,87.60
2018-02-22T11:34:45.790Z,88.10
2018-02-22T11:37:24.413Z,87.80
2018-02-22T11:42:28.724Z,86.30
2018-02-22T11:44:56.264Z,86.30
2018-02-22T11:47:23.980Z,86.70
2018-02-22T11:49:51.964Z,86.70
2018-02-22T11:52:20.303Z,85.50
2018-02-22T11:54:48.620Z,87.00
2018-02-22T11:57:16.666Z,86.40
2018-02-22T11:59:44.203Z,86.70
2018-02-22T12:02:11.743Z,87.20
2018-02-22T12:04:40.084Z,85.90
2018-02-22T12:07:07.631Z,85.80
2018-02-22T12:09:35.175Z,86.30
2018-02-22T12:12:03.372Z,86.60
2018-02-22T12:14:30.915Z,87.70
2018-02-22T12:16:58.456Z,88.80
2018-02-22T12:19:26.023Z,89.20
2018-02-22T12:21:53.599Z,87.10
2018-02-22T12:24:21.355Z,88.00
2018-02-22T12:26:48.967Z,88.10
2018-02-22T12:29:16.541Z,88.90
2018-02-22T12:31:45.130Z,89.70
2018-02-22T12:34:13.254Z,89.70
2018-02-22T12:36:40.782Z,90.50
2018-02-22T12:39:08.367Z,91.00
2018-02-22T12:41:35.952Z,91.30
2018-02-22T12:44:03.519Z,91.10
2018-02-22T12:46:31.067Z,91.10
2018-02-22T12:48:59.238Z,91.40
2018-02-22T12:51:26.783Z,91.80
2018-02-22T12:53:54.331Z,92.50
2018-02-22T12:56:22.237Z,92.40
2018-02-22T12:58:50.555Z,92.10
2018-02-22T13:01:18.151Z,92.10
2018-02-22T13:03:45.728Z,92.30
2018-02-22T13:06:24.630Z,91.90
2018-02-22T13:13:17.519Z,91.40
2018-02-22T13:15:45.105Z,92.60
2018-02-22T13:18:13.701Z,92.40
2018-02-22T13:20:42.060Z,91.00
2018-02-22T13:23:11.086Z,91.00
2018-02-22T13:25:38.628Z,91.60
2018-02-22T13:28:06.206Z,91.30
2018-02-22T13:30:33.752Z,91.10
2018-02-22T13:33:13.462Z,91.60
2018-02-22T13:35:41.027Z,90.40
2018-02-22T13:38:20.444Z,90.70
2018-02-22T13:40:47.996Z,90.90
2018-02-22T13:43:16.439Z,91.10
2018-02-22T13:45:44.015Z,90.90
2018-02-22T13:48:12.325Z,91.10
2018-02-22T13:50:53.703Z,91.40
2018-02-22T13:53:28.080Z,91.50
2018-02-22T13:55:57.152Z,91.00
2018-02-22T13:58:25.492Z,91.10
2018-02-22T14:01:04.849Z,91.00
2018-02-22T14:03:35.792Z,90.40
2018-02-22T14:06:03.352Z,91.20
2018-02-22T14:08:42.702Z,90.80
2018-02-22T14:11:10.257Z,90.30
2018-02-22T14:13:37.829Z,89.70
2018-02-22T14:16:05.468Z,88.50
2018-02-22T14:18:33.012Z,88.70
2018-02-22T14:21:00.587Z,87.90
2018-02-22T14:23:28.597Z,88.20
2018-02-22T14:25:56.984Z,89.80
2018-02-22T14:28:24.583Z,89.70
2018-02-22T14:30:53.841Z,89.10
2018-02-22T14:33:22.308Z,89.20
2018-02-22T14:35:49.929Z,89.10
2018-02-22T14:38:17.508Z,89.10
2018-02-22T14:40:45.122Z,88.80
2018-02-22T14:43:13.634Z,87.30
2018-02-22T14:45:41.226Z,86.30
2018-02-22T14:48:08.836Z,87.40
2018-02-22T14:50:36.507Z,87.10
2018-02-22T14:53:04.512Z,87.80
2018-02-22T14:55:32.051Z,86.70
2018-02-22T14:57:59.590Z,88.00
2018-02-22T15:00:31.126Z,87.40
2018-02-22T15:02:59.555Z,88.10
2018-02-22T15:05:33.946Z,89.10
2018-02-22T15:08:14.571Z,87.70
2018-02-22T15:10:42.160Z,88.10
2018-02-22T15:13:09.894Z,88.00
2018-02-22T15:15:37.457Z,89.40
2018-02-22T15:18:06.777Z,89.60
2018-02-22T15:20:37.566Z,90.30
2018-02-22T15:23:06.507Z,90.50
2018-02-22T15:25:34.840Z,91.10
2018-02-22T15:28:02.416Z,91.10
2018-02-22T15:30:30.061Z,91.30
2018-02-22T15:32:57.638Z,91.10
2018-02-22T15:35:25.465Z,90.90
2018-02-22T15:37:53.057Z,90.90
2018-02-22T15:40:20.623Z,91.60
2018-02-22T15:42:48.398Z,91.60
2018-02-22T15:45:16.531Z,91.80
2018-02-22T15:47:44.088Z,91.80
2018-02-22T15:50:11.652Z,91.80
2018-02-22T15:52:39.244Z,92.40
2018-02-22T15:55:07.600Z,92.30
2018-02-22T15:57:35.175Z,92.30
2018-02-22T16:00:03.001Z,92.20
2018-02-22T16:02:31.289Z,92.50
2018-02-22T16:04:59.501Z,92.80
2018-02-22T16:07:27.136Z,92.50
2018-02-22T16:09:54.784Z,92.60
2018-02-22T16:12:23.372Z,92.70
2018-02-22T16:14:51.131Z,92.40
2018-02-22T16:17:18.681Z,93.10
2018-02-22T16:19:46.292Z,93.30
2018-02-22T16:22:16.312Z,93.60
2018-02-22T16:24:43.882Z,93.60
2018-02-22T16:27:11.485Z,93.70
2018-02-22T16:29:39.089Z,93.70
2018-02-22T16:32:06.786Z,94.20
2018-02-22T16:34:35.261Z,95.40
2018-02-22T16:37:04.065Z,95.40
2018-02-22T16:39:31.766Z,95.80
2018-02-22T16:42:02.544Z,96.20
2018-02-22T16:44:30.946Z,96.60
2018-02-22T16:46:58.625Z,96.60
2018-02-22T16:52:09.094Z,97.40
2018-02-22T16:54:37.035Z,97.70
2018-02-22T16:57:06.110Z,98.00
2018-02-22T16:59:33.660Z,97.90
2018-02-22T17:02:01.384Z,98.20
2018-02-22T17:04:29.881Z,98.20
2018-02-22T17:06:57.452Z,98.50
2018-02-22T17:09:25.181Z,98.60
2018-02-22T17:11:53.488Z,98.80
2018-02-22T17:14:21.066Z,98.70
2018-02-22T17:16:48.970Z,98.80
2018-02-22T17:19:16.533Z,99.10
2018-02-22T17:21:44.859Z,99.20
2018-02-22T17:24:12.441Z,99.20
2018-02-22T17:26:45.680Z,99.30
2018-02-22T17:29:22.175Z,99.60
2018-02-22T17:31:55.433Z,99.60
2018-02-22T17:34:23.673Z,99.70
2018-02-22T17:36:52.328Z,99.50
2018-02-22T17:39:25.476Z,99.50
2018-02-22T17:41:53.046Z,99.70
2018-02-22T17:44:20.584Z,99.80
2018-02-22T17:46:49.040Z,99.80
2018-02-22T17:49:16.616Z,99.90
2018-02-22T17:51:45.098Z,99.80
2018-02-22T17:54:14.139Z,99.80
2018-02-22T17:56:41.692Z,99.90
2018-02-22T17:59:09.612Z,99.90
2018-02-22T18:01:37.399Z,99.90
2018-02-22T18:04:05.004Z,99.90
2018-02-22T18:06:32.870Z,99.90
2018-02-22T18:09:01.444Z,99.90
2018-02-22T18:11:29.651Z,99.90
2018-02-22T18:13:57.196Z,99.90
2018-02-22T18:16:24.809Z,99.90
2018-02-22T18:18:53.139Z,99.90
2018-02-22T18:21:20.707Z,99.90
2018-02-22T18:23:48.283Z,99.90
2018-02-22T18:26:16.490Z,99.90
2018-02-22T18:28:44.032Z,99.90
2018-02-22T18:31:11.609Z,99.90
2018-02-22T18:33:39.214Z,99.90
2018-02-22T18:38:46.563Z,99.90
2018-02-22T18:41:33.753Z,99.90
2018-02-22T18:46:38.892Z,99.90
2018-02-22T18:49:07.208Z,99.90
2018-02-22T18:51:34.764Z,99.90
2018-02-22T18:54:02.561Z,99.90
2018-02-22T18:56:30.868Z,99.90
2018-02-22T18:58:59.828Z,99.90
2018-02-22T19:01:29.171Z,99.90
2018-02-22T19:03:56.819Z,99.90
2018-02-22T19:06:24.376Z,99.80
2018-02-22T19:08:51.967Z,99.90
2018-02-22T19:11:19.513Z,99.70
2018-02-22T19:13:47.072Z,99.90
2018-02-22T19:16:16.514Z,99.70
2018-02-22T19:18:44.055Z,99.50
2018-02-22T19:21:11.710Z,99.20
2018-02-22T19:23:39.274Z,99.30
2018-02-22T19:26:06.823Z,99.20
2018-02-22T19:28:35.136Z,98.60
2018-02-22T19:31:02.715Z,98.60
2018-02-22T19:33:31.030Z,99.00
2018-02-22T19:35:58.577Z,99.00
2018-02-22T19:38:26.207Z,99.40
2018-02-22T19:40:53.745Z,99.20
2018-02-22T19:43:21.428Z,99.00
2018-02-22T19:45:49.004Z,98.20
2018-02-22T19:48:19.946Z,98.10
2018-02-22T19:50:48.268Z,98.50
2018-02-22T19:53:16.469Z,98.50
2018-02-22T19:55:44.022Z,98.50
2018-02-22T19:58:11.614Z,98.50
2018-02-22T20:00:39.207Z,98.60
2018-02-22T20:03:07.173Z,98.80
2018-02-22T20:05:34.712Z,98.70
2018-02-22T20:08:03.067Z,98.70
2018-02-22T20:10:30.660Z,98.70
2018-02-22T20:12:58.233Z,98.60
2018-02-22T20:15:25.799Z,98.60
2018-02-22T20:17:53.339Z,98.10
2018-02-22T20:20:20.959Z,98.30
2018-02-22T20:22:48.824Z,98.30
2018-02-22T20:25:16.685Z,98.00
2018-02-22T20:27:44.223Z,98.10
2018-02-22T20:30:11.791Z,98.10
2018-02-22T20:32:39.335Z,97.60
2018-02-22T20:35:06.955Z,97.50
2018-02-22T20:37:34.699Z,97.30
2018-02-22T20:40:02.320Z,97.40
2018-02-22T20:42:29.872Z,97.60
2018-02-22T20:44:57.517Z,97.40
2018-02-22T20:47:25.054Z,97.40
2018-02-22T20:49:52.598Z,97.90
2018-02-22T20:52:22.677Z,97.60
2018-02-22T20:55:01.051Z,97.70
2018-02-22T20:57:28.620Z,97.40
2018-02-22T20:59:57.129Z,97.00
2018-02-22T21:02:24.825Z,96.90
2018-02-22T21:04:53.251Z,96.80
2018-02-22T21:07:20.826Z,96.60
2018-02-22T21:09:48.402Z,96.50
2018-02-22T21:12:16.644Z,96.60
2018-02-22T21:14:45.016Z,96.40
2018-02-22T21:17:12.658Z,96.40
2018-02-22T21:19:40.235Z,96.30
2018-02-22T21:22:07.960Z,96.70
2018-02-22T21:24:35.676Z,96.80
2018-02-22T21:27:03.390Z,97.00
2018-02-22T21:29:30.967Z,96.90
2018-02-22T21:31:58.908Z,96.60
2018-02-22T21:34:28.325Z,96.70
2018-02-22T21:36:55.863Z,96.90
2018-02-22T21:39:23.420Z,96.80
2018-02-22T21:41:51.009Z,96.30
2018-02-22T21:44:19.716Z,95.90
2018-02-22T21:46:47.250Z,95.90
2018-02-22T21:49:15.708Z,96.10
2018-02-22T21:51:43.266Z,96.00
2018-02-22T21:54:10.902Z,96.20
2018-02-22T21:56:38.522Z,96.30
2018-02-22T21:59:06.115Z,96.20
2018-02-22T22:01:33.800Z,96.20
2018-02-22T22:04:02.267Z,96.00
2018-02-22T22:06:30.833Z,96.10
2018-02-22T22:08:59.481Z,96.10
2018-02-22T22:11:28.316Z,96.10
2018-02-22T22:13:56.625Z,96.00
2018-02-22T22:16:24.253Z,96.00
2018-02-22T22:18:51.839Z,96.00
2018-02-22T22:21:21.241Z,96.40
2018-02-22T22:23:48.812Z,96.00
2018-02-22T22:26:16.483Z,96.10
2018-02-22T22:28:44.025Z,96.10
2018-02-22T22:31:11.568Z,96.30
2018-02-22T22:33:39.212Z,96.30
2018-02-22T22:36:06.752Z,96.70
2018-02-22T22:38:34.295Z,96.40
2018-02-22T22:41:01.855Z,96.60
2018-02-22T22:43:29.404Z,96.70
2018-02-22T22:45:56.947Z,96.70
2018-02-22T22:48:24.548Z,96.80
2018-02-22T22:50:52.090Z,96.80
2018-02-22T22:53:19.645Z,96.90
2018-02-22T22:55:47.741Z,97.00
2018-02-22T22:58:17.225Z,97.00
2018-02-22T23:00:44.764Z,97.00
2018-02-22T23:03:12.386Z,97.00
2018-02-22T23:05:39.923Z,96.90
2018-02-22T23:08:07.964Z,96.70
2018-02-22T23:10:35.548Z,96.70
2018-02-22T23:13:03.088Z,96.80
2018-02-22T23:15:30.627Z,96.50
2018-02-22T23:17:58.503Z,96.60
2018-02-22T23:20:26.044Z,96.40
2018-02-22T23:22:54.363Z,96.40
2018-02-22T23:25:21.943Z,96.40
2018-02-22T23:27:49.500Z,96.20
2018-02-22T23:30:17.039Z,95.90
2018-02-22T23:32:44.619Z,95.30
2018-02-22T23:35:12.164Z,95.20
2018-02-22T23:37:39.708Z,95.50
2018-02-22T23:40:08.695Z,95.10
2018-02-22T23:42:38.865Z,95.30
2018-02-22T23:45:06.403Z,95.00
2018-02-22T23:47:33.991Z,94.60
2018-02-22T23:50:01.536Z,94.90
2018-02-22T23:52:29.091Z,94.90
2018-02-22T23:54:56.664Z,95.10
2018-02-22T23:57:24.208Z,95.00
2018-02-22T23:59:51.751Z,95.10
